sensor_id;sensor_type;location;lat;lon;timestamp;temperature;humidity
3868;DHT22;1949;48.152;11.528;2023-06-26T00:00:28;27.10;30.80
3868;DHT22;1949;48.152;11.528;2023-06-26T00:02:56;27.10;30.90
3868;DHT22;1949;48.152;11.528;2023-06-26T00:05:22;27.10;30.90
3868;DHT22;1949;48.152;11.528;2023-06-26T00:07:51;27.00;30.90
3868;DHT22;1949;48.152;11.528;2023-06-26T00:10:20;27.00;31.00
3868;DHT22;1949;48.152;11.528;2023-06-26T00:12:46;27.00;31.10
3868;DHT22;1949;48.152;11.528;2023-06-26T00:15:13;27.00;31.00
3868;DHT22;1949;48.152;11.528;2023-06-26T00:17:40;27.00;31.10
3868;DHT22;1949;48.152;11.528;2023-06-26T00:20:09;27.00;31.00
3868;DHT22;1949;48.152;11.528;2023-06-26T00:22:35;27.00;31.10
3868;DHT22;1949;48.152;11.528;2023-06-26T00:25:02;27.00;31.10
3868;DHT22;1949;48.152;11.528;2023-06-26T00:27:28;27.00;31.10
3868;DHT22;1949;48.152;11.528;2023-06-26T00:29:55;26.90;31.10
3868;DHT22;1949;48.152;11.528;2023-06-26T00:32:21;26.90;31.10
3868;DHT22;1949;48.152;11.528;2023-06-26T00:34:46;26.90;31.20
3868;DHT22;1949;48.152;11.528;2023-06-26T00:37:14;26.90;31.40
3868;DHT22;1949;48.152;11.528;2023-06-26T00:39:41;26.90;31.30
3868;DHT22;1949;48.152;11.528;2023-06-26T00:42:09;26.80;31.20
3868;DHT22;1949;48.152;11.528;2023-06-26T00:44:34;26.70;31.20
3868;DHT22;1949;48.152;11.528;2023-06-26T00:47:01;26.60;31.40
3868;DHT22;1949;48.152;11.528;2023-06-26T00:49:28;26.40;31.90
3868;DHT22;1949;48.152;11.528;2023-06-26T00:51:55;26.30;31.50
3868;DHT22;1949;48.152;11.528;2023-06-26T00:54:22;26.20;31.70
3868;DHT22;1949;48.152;11.528;2023-06-26T00:56:51;26.20;32.00
3868;DHT22;1949;48.152;11.528;2023-06-26T00:59:16;26.20;32.10
3868;DHT22;1949;48.152;11.528;2023-06-26T01:01:44;26.10;32.00
3868;DHT22;1949;48.152;11.528;2023-06-26T01:04:10;26.00;31.90
3868;DHT22;1949;48.152;11.528;2023-06-26T01:06:45;26.00;31.90
3868;DHT22;1949;48.152;11.528;2023-06-26T01:09:18;25.90;32.00
3868;DHT22;1949;48.152;11.528;2023-06-26T01:11:45;25.80;32.00
3868;DHT22;1949;48.152;11.528;2023-06-26T01:14:12;25.70;32.10
3868;DHT22;1949;48.152;11.528;2023-06-26T01:16:38;25.60;32.20
3868;DHT22;1949;48.152;11.528;2023-06-26T01:19:11;25.60;32.30
3868;DHT22;1949;48.152;11.528;2023-06-26T01:21:43;25.50;32.50
3868;DHT22;1949;48.152;11.528;2023-06-26T01:24:18;25.40;32.50
3868;DHT22;1949;48.152;11.528;2023-06-26T01:26:49;25.30;32.50
3868;DHT22;1949;48.152;11.528;2023-06-26T01:29:20;25.20;32.60
3868;DHT22;1949;48.152;11.528;2023-06-26T01:31:49;25.20;32.70
3868;DHT22;1949;48.152;11.528;2023-06-26T01:34:18;25.10;32.70
3868;DHT22;1949;48.152;11.528;2023-06-26T01:36:51;25.00;32.80
3868;DHT22;1949;48.152;11.528;2023-06-26T01:39:20;25.00;33.10
3868;DHT22;1949;48.152;11.528;2023-06-26T01:41:51;24.90;33.00
3868;DHT22;1949;48.152;11.528;2023-06-26T01:44:33;24.80;33.10
3868;DHT22;1949;48.152;11.528;2023-06-26T01:47:03;24.80;33.20
3868;DHT22;1949;48.152;11.528;2023-06-26T01:50:09;24.80;33.30
3868;DHT22;1949;48.152;11.528;2023-06-26T01:53:02;24.70;33.10
3868;DHT22;1949;48.152;11.528;2023-06-26T01:57:56;24.60;33.50
3868;DHT22;1949;48.152;11.528;2023-06-26T02:00:23;24.60;33.50
3868;DHT22;1949;48.152;11.528;2023-06-26T02:02:51;24.60;33.60
3868;DHT22;1949;48.152;11.528;2023-06-26T02:05:20;24.70;33.80
3868;DHT22;1949;48.152;11.528;2023-06-26T02:07:46;24.70;33.80
3868;DHT22;1949;48.152;11.528;2023-06-26T02:10:13;24.70;33.80
3868;DHT22;1949;48.152;11.528;2023-06-26T02:12:39;24.60;33.70
3868;DHT22;1949;48.152;11.528;2023-06-26T02:15:06;24.60;33.80
3868;DHT22;1949;48.152;11.528;2023-06-26T02:17:34;24.60;33.90
3868;DHT22;1949;48.152;11.528;2023-06-26T02:20:02;24.60;34.00
3868;DHT22;1949;48.152;11.528;2023-06-26T02:22:27;24.60;34.20
3868;DHT22;1949;48.152;11.528;2023-06-26T02:25:00;24.60;34.20
3868;DHT22;1949;48.152;11.528;2023-06-26T02:27:26;24.60;34.20
3868;DHT22;1949;48.152;11.528;2023-06-26T02:30:02;24.60;34.20
3868;DHT22;1949;48.152;11.528;2023-06-26T02:32:28;24.60;34.20
3868;DHT22;1949;48.152;11.528;2023-06-26T02:34:53;24.60;34.20
3868;DHT22;1949;48.152;11.528;2023-06-26T02:37:20;24.60;34.20
3868;DHT22;1949;48.152;11.528;2023-06-26T02:39:45;24.50;34.20
3868;DHT22;1949;48.152;11.528;2023-06-26T02:42:13;24.50;34.30
3868;DHT22;1949;48.152;11.528;2023-06-26T02:44:41;24.40;34.30
3868;DHT22;1949;48.152;11.528;2023-06-26T02:47:09;24.40;34.50
3868;DHT22;1949;48.152;11.528;2023-06-26T02:49:34;24.30;34.50
3868;DHT22;1949;48.152;11.528;2023-06-26T02:52:00;24.30;34.60
3868;DHT22;1949;48.152;11.528;2023-06-26T02:54:26;24.30;34.60
3868;DHT22;1949;48.152;11.528;2023-06-26T02:56:51;24.30;34.70
3868;DHT22;1949;48.152;11.528;2023-06-26T02:59:17;24.30;34.90
3868;DHT22;1949;48.152;11.528;2023-06-26T03:01:47;24.40;34.90
3868;DHT22;1949;48.152;11.528;2023-06-26T03:04:13;24.40;34.90
3868;DHT22;1949;48.152;11.528;2023-06-26T03:06:41;24.40;34.90
3868;DHT22;1949;48.152;11.528;2023-06-26T03:09:07;24.40;34.80
3868;DHT22;1949;48.152;11.528;2023-06-26T03:11:33;24.40;34.90
3868;DHT22;1949;48.152;11.528;2023-06-26T03:13:58;24.50;34.90
3868;DHT22;1949;48.152;11.528;2023-06-26T03:16:24;24.50;34.80
3868;DHT22;1949;48.152;11.528;2023-06-26T03:18:51;24.50;34.80
3868;DHT22;1949;48.152;11.528;2023-06-26T03:21:17;24.40;34.80
3868;DHT22;1949;48.152;11.528;2023-06-26T03:23:43;24.40;34.80
3868;DHT22;1949;48.152;11.528;2023-06-26T03:26:09;24.30;34.80
3868;DHT22;1949;48.152;11.528;2023-06-26T03:28:36;24.20;34.90
3868;DHT22;1949;48.152;11.528;2023-06-26T03:31:03;24.10;35.00
3868;DHT22;1949;48.152;11.528;2023-06-26T03:33:29;24.10;35.10
3868;DHT22;1949;48.152;11.528;2023-06-26T03:35:54;24.10;35.10
3868;DHT22;1949;48.152;11.528;2023-06-26T03:38:21;24.00;35.10
3868;DHT22;1949;48.152;11.528;2023-06-26T03:40:47;24.00;35.30
3868;DHT22;1949;48.152;11.528;2023-06-26T03:43:15;24.00;35.30
3868;DHT22;1949;48.152;11.528;2023-06-26T03:45:41;24.00;35.50
3868;DHT22;1949;48.152;11.528;2023-06-26T03:48:07;24.00;35.40
3868;DHT22;1949;48.152;11.528;2023-06-26T03:50:33;24.00;35.50
3868;DHT22;1949;48.152;11.528;2023-06-26T03:52:59;24.00;35.40
3868;DHT22;1949;48.152;11.528;2023-06-26T03:55:25;24.00;35.40
3868;DHT22;1949;48.152;11.528;2023-06-26T03:57:51;24.00;35.50
3868;DHT22;1949;48.152;11.528;2023-06-26T04:00:17;23.90;35.40
3868;DHT22;1949;48.152;11.528;2023-06-26T04:02:43;23.90;35.40
3868;DHT22;1949;48.152;11.528;2023-06-26T04:05:08;23.90;35.50
3868;DHT22;1949;48.152;11.528;2023-06-26T04:07:34;23.80;35.50
3868;DHT22;1949;48.152;11.528;2023-06-26T04:10:02;23.80;35.60
3868;DHT22;1949;48.152;11.528;2023-06-26T04:12:28;23.80;35.70
3868;DHT22;1949;48.152;11.528;2023-06-26T04:14:53;23.80;35.70
3868;DHT22;1949;48.152;11.528;2023-06-26T04:17:19;23.80;35.60
3868;DHT22;1949;48.152;11.528;2023-06-26T04:19:46;23.70;35.60
3868;DHT22;1949;48.152;11.528;2023-06-26T04:22:11;23.70;35.80
3868;DHT22;1949;48.152;11.528;2023-06-26T04:24:37;23.80;35.80
3868;DHT22;1949;48.152;11.528;2023-06-26T04:27:04;23.80;35.70
3868;DHT22;1949;48.152;11.528;2023-06-26T04:29:32;23.70;35.70
3868;DHT22;1949;48.152;11.528;2023-06-26T04:31:59;23.70;35.80
3868;DHT22;1949;48.152;11.528;2023-06-26T04:34:25;23.70;35.90
3868;DHT22;1949;48.152;11.528;2023-06-26T04:36:54;23.80;35.90
3868;DHT22;1949;48.152;11.528;2023-06-26T04:39:20;23.80;36.00
3868;DHT22;1949;48.152;11.528;2023-06-26T04:41:48;23.90;36.10
3868;DHT22;1949;48.152;11.528;2023-06-26T04:44:14;23.90;36.00
3868;DHT22;1949;48.152;11.528;2023-06-26T04:46:40;23.80;35.90
3868;DHT22;1949;48.152;11.528;2023-06-26T04:49:12;23.90;36.00
3868;DHT22;1949;48.152;11.528;2023-06-26T04:51:40;23.90;36.10
3868;DHT22;1949;48.152;11.528;2023-06-26T04:54:10;23.90;36.00
3868;DHT22;1949;48.152;11.528;2023-06-26T04:56:37;23.90;36.10
3868;DHT22;1949;48.152;11.528;2023-06-26T04:59:05;24.00;36.10
3868;DHT22;1949;48.152;11.528;2023-06-26T05:01:33;24.00;36.10
3868;DHT22;1949;48.152;11.528;2023-06-26T05:04:01;24.00;36.10
3868;DHT22;1949;48.152;11.528;2023-06-26T05:06:34;24.10;36.20
3868;DHT22;1949;48.152;11.528;2023-06-26T05:09:00;24.10;36.10
3868;DHT22;1949;48.152;11.528;2023-06-26T05:11:27;24.00;36.00
3868;DHT22;1949;48.152;11.528;2023-06-26T05:13:53;24.10;36.20
3868;DHT22;1949;48.152;11.528;2023-06-26T05:16:18;24.10;36.20
3868;DHT22;1949;48.152;11.528;2023-06-26T05:18:53;24.10;36.20
3868;DHT22;1949;48.152;11.528;2023-06-26T05:21:21;24.20;36.30
3868;DHT22;1949;48.152;11.528;2023-06-26T05:23:47;24.30;36.20
3868;DHT22;1949;48.152;11.528;2023-06-26T05:26:14;24.20;36.20
3868;DHT22;1949;48.152;11.528;2023-06-26T05:28:40;24.30;36.20
3868;DHT22;1949;48.152;11.528;2023-06-26T05:31:06;24.30;36.30
3868;DHT22;1949;48.152;11.528;2023-06-26T05:33:35;24.40;36.40
3868;DHT22;1949;48.152;11.528;2023-06-26T05:36:03;24.40;36.30
3868;DHT22;1949;48.152;11.528;2023-06-26T05:38:29;24.50;36.50
3868;DHT22;1949;48.152;11.528;2023-06-26T05:40:55;24.50;36.30
3868;DHT22;1949;48.152;11.528;2023-06-26T05:43:21;24.50;36.30
3868;DHT22;1949;48.152;11.528;2023-06-26T05:45:58;24.60;36.10
3868;DHT22;1949;48.152;11.528;2023-06-26T05:51:39;24.60;36.10
3868;DHT22;1949;48.152;11.528;2023-06-26T05:54:13;24.70;36.30
3868;DHT22;1949;48.152;11.528;2023-06-26T05:56:40;24.70;36.20
3868;DHT22;1949;48.152;11.528;2023-06-26T05:59:07;24.80;36.30
3868;DHT22;1949;48.152;11.528;2023-06-26T06:01:37;24.80;36.20
3868;DHT22;1949;48.152;11.528;2023-06-26T06:04:04;24.90;36.30
3868;DHT22;1949;48.152;11.528;2023-06-26T06:06:31;24.90;36.30
3868;DHT22;1949;48.152;11.528;2023-06-26T06:08:57;25.00;36.30
3868;DHT22;1949;48.152;11.528;2023-06-26T06:11:23;25.00;36.20
3868;DHT22;1949;48.152;11.528;2023-06-26T06:13:49;25.00;36.20
3868;DHT22;1949;48.152;11.528;2023-06-26T06:16:16;25.10;36.30
3868;DHT22;1949;48.152;11.528;2023-06-26T06:18:43;25.20;36.20
3868;DHT22;1949;48.152;11.528;2023-06-26T06:21:17;25.20;36.10
3868;DHT22;1949;48.152;11.528;2023-06-26T06:23:43;25.30;36.30
3868;DHT22;1949;48.152;11.528;2023-06-26T06:26:09;25.30;36.20
3868;DHT22;1949;48.152;11.528;2023-06-26T06:28:36;25.40;36.30
3868;DHT22;1949;48.152;11.528;2023-06-26T06:31:06;25.40;36.30
3868;DHT22;1949;48.152;11.528;2023-06-26T06:33:32;25.50;36.30
3868;DHT22;1949;48.152;11.528;2023-06-26T06:35:57;25.60;36.30
3868;DHT22;1949;48.152;11.528;2023-06-26T06:38:24;25.70;36.20
3868;DHT22;1949;48.152;11.528;2023-06-26T06:40:51;25.70;36.10
3868;DHT22;1949;48.152;11.528;2023-06-26T06:43:17;25.80;36.00
3868;DHT22;1949;48.152;11.528;2023-06-26T06:45:46;25.90;36.00
3868;DHT22;1949;48.152;11.528;2023-06-26T06:48:12;25.90;36.10
3868;DHT22;1949;48.152;11.528;2023-06-26T06:50:38;26.00;36.10
3868;DHT22;1949;48.152;11.528;2023-06-26T06:53:06;26.10;35.90
3868;DHT22;1949;48.152;11.528;2023-06-26T06:55:33;26.10;35.80
3868;DHT22;1949;48.152;11.528;2023-06-26T06:58:00;26.20;35.80
3868;DHT22;1949;48.152;11.528;2023-06-26T07:00:26;26.20;35.70
3868;DHT22;1949;48.152;11.528;2023-06-26T07:02:53;26.30;35.70
3868;DHT22;1949;48.152;11.528;2023-06-26T07:05:19;26.30;35.60
3868;DHT22;1949;48.152;11.528;2023-06-26T07:07:46;26.30;35.50
3868;DHT22;1949;48.152;11.528;2023-06-26T07:10:13;26.40;35.50
3868;DHT22;1949;48.152;11.528;2023-06-26T07:12:46;26.40;35.40
3868;DHT22;1949;48.152;11.528;2023-06-26T07:15:12;26.40;35.40
3868;DHT22;1949;48.152;11.528;2023-06-26T07:17:38;26.50;35.40
3868;DHT22;1949;48.152;11.528;2023-06-26T07:20:04;26.50;35.40
3868;DHT22;1949;48.152;11.528;2023-06-26T07:22:34;26.50;35.40
3868;DHT22;1949;48.152;11.528;2023-06-26T07:25:02;26.60;35.40
3868;DHT22;1949;48.152;11.528;2023-06-26T07:27:30;26.60;35.10
3868;DHT22;1949;48.152;11.528;2023-06-26T07:29:57;26.60;35.20
3868;DHT22;1949;48.152;11.528;2023-06-26T07:32:27;26.70;35.40
3868;DHT22;1949;48.152;11.528;2023-06-26T07:34:53;26.70;35.30
3868;DHT22;1949;48.152;11.528;2023-06-26T07:37:18;26.80;35.30
3868;DHT22;1949;48.152;11.528;2023-06-26T07:39:50;26.80;35.30
3868;DHT22;1949;48.152;11.528;2023-06-26T07:42:17;26.80;35.30
3868;DHT22;1949;48.152;11.528;2023-06-26T07:44:42;26.90;35.40
3868;DHT22;1949;48.152;11.528;2023-06-26T07:47:17;26.90;35.40
3868;DHT22;1949;48.152;11.528;2023-06-26T07:49:43;26.90;35.40
3868;DHT22;1949;48.152;11.528;2023-06-26T07:52:14;27.00;35.50
3868;DHT22;1949;48.152;11.528;2023-06-26T07:54:40;27.00;35.60
3868;DHT22;1949;48.152;11.528;2023-06-26T07:57:06;27.10;35.60
3868;DHT22;1949;48.152;11.528;2023-06-26T07:59:33;27.10;35.60
3868;DHT22;1949;48.152;11.528;2023-06-26T08:01:59;27.10;35.50
3868;DHT22;1949;48.152;11.528;2023-06-26T08:04:26;27.20;35.60
3868;DHT22;1949;48.152;11.528;2023-06-26T08:06:55;27.20;35.60
3868;DHT22;1949;48.152;11.528;2023-06-26T08:09:25;27.20;35.60
3868;DHT22;1949;48.152;11.528;2023-06-26T08:11:52;27.30;35.70
3868;DHT22;1949;48.152;11.528;2023-06-26T08:14:19;27.30;35.60
3868;DHT22;1949;48.152;11.528;2023-06-26T08:16:46;27.30;35.50
3868;DHT22;1949;48.152;11.528;2023-06-26T08:19:13;27.30;35.50
3868;DHT22;1949;48.152;11.528;2023-06-26T08:21:45;27.30;35.60
3868;DHT22;1949;48.152;11.528;2023-06-26T08:24:12;27.40;35.60
3868;DHT22;1949;48.152;11.528;2023-06-26T08:26:39;27.40;35.70
3868;DHT22;1949;48.152;11.528;2023-06-26T08:29:15;27.40;35.70
3868;DHT22;1949;48.152;11.528;2023-06-26T08:31:42;27.50;35.70
3868;DHT22;1949;48.152;11.528;2023-06-26T08:34:08;27.50;35.50
3868;DHT22;1949;48.152;11.528;2023-06-26T08:36:40;27.50;35.60
3868;DHT22;1949;48.152;11.528;2023-06-26T08:39:09;27.60;35.60
3868;DHT22;1949;48.152;11.528;2023-06-26T08:41:35;27.60;35.60
3868;DHT22;1949;48.152;11.528;2023-06-26T08:44:02;27.60;35.60
3868;DHT22;1949;48.152;11.528;2023-06-26T08:46:29;27.70;35.60
3868;DHT22;1949;48.152;11.528;2023-06-26T08:48:56;27.70;35.60
3868;DHT22;1949;48.152;11.528;2023-06-26T08:51:28;27.70;35.50
3868;DHT22;1949;48.152;11.528;2023-06-26T08:53:58;27.80;35.40
3868;DHT22;1949;48.152;11.528;2023-06-26T08:56:32;27.80;35.50
3868;DHT22;1949;48.152;11.528;2023-06-26T08:59:04;27.90;35.50
3868;DHT22;1949;48.152;11.528;2023-06-26T09:01:31;27.90;35.20
3868;DHT22;1949;48.152;11.528;2023-06-26T09:03:58;27.90;35.30
3868;DHT22;1949;48.152;11.528;2023-06-26T09:06:24;27.90;35.00
3868;DHT22;1949;48.152;11.528;2023-06-26T09:08:51;28.00;34.90
3868;DHT22;1949;48.152;11.528;2023-06-26T09:11:17;28.00;34.90
3868;DHT22;1949;48.152;11.528;2023-06-26T09:13:44;28.10;34.80
3868;DHT22;1949;48.152;11.528;2023-06-26T09:16:13;28.10;34.90
3868;DHT22;1949;48.152;11.528;2023-06-26T09:18:45;28.10;34.90
3868;DHT22;1949;48.152;11.528;2023-06-26T09:21:14;28.20;34.70
3868;DHT22;1949;48.152;11.528;2023-06-26T09:23:43;28.20;34.60
3868;DHT22;1949;48.152;11.528;2023-06-26T09:26:08;28.30;34.70
3868;DHT22;1949;48.152;11.528;2023-06-26T09:28:35;28.30;34.40
3868;DHT22;1949;48.152;11.528;2023-06-26T09:31:06;28.30;34.40
3868;DHT22;1949;48.152;11.528;2023-06-26T09:33:36;28.30;34.40
3868;DHT22;1949;48.152;11.528;2023-06-26T09:36:08;28.40;34.40
3868;DHT22;1949;48.152;11.528;2023-06-26T09:38:35;28.40;34.00
3868;DHT22;1949;48.152;11.528;2023-06-26T09:41:05;28.50;33.90
3868;DHT22;1949;48.152;11.528;2023-06-26T09:44:01;28.50;33.80
3868;DHT22;1949;48.152;11.528;2023-06-26T09:46:28;28.50;33.80
3868;DHT22;1949;48.152;11.528;2023-06-26T09:49:07;28.60;33.40
3868;DHT22;1949;48.152;11.528;2023-06-26T09:51:35;28.60;33.40
3868;DHT22;1949;48.152;11.528;2023-06-26T09:54:03;28.60;33.00
3868;DHT22;1949;48.152;11.528;2023-06-26T09:56:30;28.70;32.90
3868;DHT22;1949;48.152;11.528;2023-06-26T09:58:57;28.70;32.90
3868;DHT22;1949;48.152;11.528;2023-06-26T10:01:27;28.70;32.90
3868;DHT22;1949;48.152;11.528;2023-06-26T10:03:54;28.80;32.80
3868;DHT22;1949;48.152;11.528;2023-06-26T10:06:26;28.80;32.90
3868;DHT22;1949;48.152;11.528;2023-06-26T10:08:54;28.80;32.60
3868;DHT22;1949;48.152;11.528;2023-06-26T10:11:21;28.80;32.60
3868;DHT22;1949;48.152;11.528;2023-06-26T10:13:51;28.80;32.50
3868;DHT22;1949;48.152;11.528;2023-06-26T10:16:25;28.80;32.40
3868;DHT22;1949;48.152;11.528;2023-06-26T10:19:01;28.90;32.40
3868;DHT22;1949;48.152;11.528;2023-06-26T10:21:29;28.90;32.10
3868;DHT22;1949;48.152;11.528;2023-06-26T10:24:03;28.90;32.00
3868;DHT22;1949;48.152;11.528;2023-06-26T10:26:32;29.00;32.70
3868;DHT22;1949;48.152;11.528;2023-06-26T10:29:03;29.00;32.00
3868;DHT22;1949;48.152;11.528;2023-06-26T10:31:29;29.00;32.00
3868;DHT22;1949;48.152;11.528;2023-06-26T10:33:56;29.00;31.90
3868;DHT22;1949;48.152;11.528;2023-06-26T10:36:30;29.10;31.90
3868;DHT22;1949;48.152;11.528;2023-06-26T10:38:58;29.10;31.70
3868;DHT22;1949;48.152;11.528;2023-06-26T10:41:27;29.10;31.60
3868;DHT22;1949;48.152;11.528;2023-06-26T10:46:24;29.20;31.40
3868;DHT22;1949;48.152;11.528;2023-06-26T10:48:58;29.20;31.30
3868;DHT22;1949;48.152;11.528;2023-06-26T10:51:29;29.30;31.40
3868;DHT22;1949;48.152;11.528;2023-06-26T10:53:57;29.30;31.30
3868;DHT22;1949;48.152;11.528;2023-06-26T10:56:43;29.40;31.20
3868;DHT22;1949;48.152;11.528;2023-06-26T10:59:23;29.40;31.40
3868;DHT22;1949;48.152;11.528;2023-06-26T11:02:02;29.40;31.10
3868;DHT22;1949;48.152;11.528;2023-06-26T11:04:50;29.50;31.30
3868;DHT22;1949;48.152;11.528;2023-06-26T11:07:26;29.50;31.30
3868;DHT22;1949;48.152;11.528;2023-06-26T11:10:08;29.50;31.10
3868;DHT22;1949;48.152;11.528;2023-06-26T11:12:39;29.50;31.20
3868;DHT22;1949;48.152;11.528;2023-06-26T11:15:15;29.50;30.90
3868;DHT22;1949;48.152;11.528;2023-06-26T11:17:42;29.50;31.00
3868;DHT22;1949;48.152;11.528;2023-06-26T11:20:11;29.50;31.00
3868;DHT22;1949;48.152;11.528;2023-06-26T11:22:40;29.50;30.90
3868;DHT22;1949;48.152;11.528;2023-06-26T11:25:08;29.60;31.10
3868;DHT22;1949;48.152;11.528;2023-06-26T11:27:40;29.60;31.00
3868;DHT22;1949;48.152;11.528;2023-06-26T11:30:07;29.70;31.10
3868;DHT22;1949;48.152;11.528;2023-06-26T11:32:33;29.70;30.90
3868;DHT22;1949;48.152;11.528;2023-06-26T11:34:59;29.80;31.10
3868;DHT22;1949;48.152;11.528;2023-06-26T11:37:26;29.70;31.10
3868;DHT22;1949;48.152;11.528;2023-06-26T11:39:53;29.80;30.90
3868;DHT22;1949;48.152;11.528;2023-06-26T11:42:20;29.80;30.80
3868;DHT22;1949;48.152;11.528;2023-06-26T11:44:46;29.80;31.00
3868;DHT22;1949;48.152;11.528;2023-06-26T11:47:20;29.80;30.80
3868;DHT22;1949;48.152;11.528;2023-06-26T11:49:47;29.80;30.80
3868;DHT22;1949;48.152;11.528;2023-06-26T11:52:14;29.80;30.80
3868;DHT22;1949;48.152;11.528;2023-06-26T11:54:41;29.90;30.90
3868;DHT22;1949;48.152;11.528;2023-06-26T11:57:07;29.90;30.90
3868;DHT22;1949;48.152;11.528;2023-06-26T11:59:39;30.00;30.20
3868;DHT22;1949;48.152;11.528;2023-06-26T12:02:14;30.00;30.10
3868;DHT22;1949;48.152;11.528;2023-06-26T12:04:42;30.00;30.10
3868;DHT22;1949;48.152;11.528;2023-06-26T12:07:09;30.10;30.10
3868;DHT22;1949;48.152;11.528;2023-06-26T12:09:45;30.10;30.00
3868;DHT22;1949;48.152;11.528;2023-06-26T12:12:16;30.20;30.00
3868;DHT22;1949;48.152;11.528;2023-06-26T12:14:42;30.20;30.00
3868;DHT22;1949;48.152;11.528;2023-06-26T12:17:17;30.30;30.40
3868;DHT22;1949;48.152;11.528;2023-06-26T12:19:50;30.30;30.00
3868;DHT22;1949;48.152;11.528;2023-06-26T12:22:17;30.40;30.00
3868;DHT22;1949;48.152;11.528;2023-06-26T12:24:45;30.50;30.00
3868;DHT22;1949;48.152;11.528;2023-06-26T12:27:14;30.50;30.00
3868;DHT22;1949;48.152;11.528;2023-06-26T12:29:45;30.60;29.90
3868;DHT22;1949;48.152;11.528;2023-06-26T12:32:12;30.70;29.80
3868;DHT22;1949;48.152;11.528;2023-06-26T12:34:40;30.70;29.70
3868;DHT22;1949;48.152;11.528;2023-06-26T12:37:10;30.80;29.80
3868;DHT22;1949;48.152;11.528;2023-06-26T12:42:26;31.00;29.60
3868;DHT22;1949;48.152;11.528;2023-06-26T12:44:53;31.10;29.50
3868;DHT22;1949;48.152;11.528;2023-06-26T12:47:30;31.10;29.30
3868;DHT22;1949;48.152;11.528;2023-06-26T12:49:57;31.20;29.40
3868;DHT22;1949;48.152;11.528;2023-06-26T12:52:24;31.10;29.20
3868;DHT22;1949;48.152;11.528;2023-06-26T12:54:54;31.10;29.20
3868;DHT22;1949;48.152;11.528;2023-06-26T12:57:20;31.10;29.20
3868;DHT22;1949;48.152;11.528;2023-06-26T12:59:45;31.00;29.10
3868;DHT22;1949;48.152;11.528;2023-06-26T13:02:15;31.10;29.10
3868;DHT22;1949;48.152;11.528;2023-06-26T13:04:41;31.10;29.20
3868;DHT22;1949;48.152;11.528;2023-06-26T13:07:08;31.20;29.10
3868;DHT22;1949;48.152;11.528;2023-06-26T13:09:35;31.30;29.00
3868;DHT22;1949;48.152;11.528;2023-06-26T13:12:03;31.40;28.90
3868;DHT22;1949;48.152;11.528;2023-06-26T13:14:30;31.40;28.80
3868;DHT22;1949;48.152;11.528;2023-06-26T13:16:55;31.50;29.00
3868;DHT22;1949;48.152;11.528;2023-06-26T13:19:21;31.60;29.00
3868;DHT22;1949;48.152;11.528;2023-06-26T13:21:47;31.60;28.80
3868;DHT22;1949;48.152;11.528;2023-06-26T13:24:12;31.70;28.80
3868;DHT22;1949;48.152;11.528;2023-06-26T13:26:38;31.70;28.80
3868;DHT22;1949;48.152;11.528;2023-06-26T13:29:04;31.80;28.80
3868;DHT22;1949;48.152;11.528;2023-06-26T13:31:31;31.80;28.80
3868;DHT22;1949;48.152;11.528;2023-06-26T13:33:59;31.90;28.90
3868;DHT22;1949;48.152;11.528;2023-06-26T13:36:27;31.90;28.70
3868;DHT22;1949;48.152;11.528;2023-06-26T13:38:53;32.00;28.80
3868;DHT22;1949;48.152;11.528;2023-06-26T13:41:25;32.00;28.80
3868;DHT22;1949;48.152;11.528;2023-06-26T13:43:51;32.00;28.70
3868;DHT22;1949;48.152;11.528;2023-06-26T13:46:17;32.10;28.60
3868;DHT22;1949;48.152;11.528;2023-06-26T13:48:44;32.00;28.60
3868;DHT22;1949;48.152;11.528;2023-06-26T13:51:12;32.00;28.60
3868;DHT22;1949;48.152;11.528;2023-06-26T13:53:39;31.90;28.60
3868;DHT22;1949;48.152;11.528;2023-06-26T13:56:09;31.90;28.60
3868;DHT22;1949;48.152;11.528;2023-06-26T13:58:36;31.90;28.70
3868;DHT22;1949;48.152;11.528;2023-06-26T14:01:02;32.00;28.80
3868;DHT22;1949;48.152;11.528;2023-06-26T14:03:28;32.10;28.70
3868;DHT22;1949;48.152;11.528;2023-06-26T14:05:55;32.20;28.80
3868;DHT22;1949;48.152;11.528;2023-06-26T14:08:21;32.30;28.60
3868;DHT22;1949;48.152;11.528;2023-06-26T14:10:47;32.50;28.60
3868;DHT22;1949;48.152;11.528;2023-06-26T14:13:13;32.50;28.30
3868;DHT22;1949;48.152;11.528;2023-06-26T14:15:41;32.60;28.10
3868;DHT22;1949;48.152;11.528;2023-06-26T14:18:09;32.60;28.00
3868;DHT22;1949;48.152;11.528;2023-06-26T14:20:35;32.70;28.40
3868;DHT22;1949;48.152;11.528;2023-06-26T14:23:01;32.60;27.90
3868;DHT22;1949;48.152;11.528;2023-06-26T14:25:28;32.60;28.00
3868;DHT22;1949;48.152;11.528;2023-06-26T14:27:55;32.70;27.90
3868;DHT22;1949;48.152;11.528;2023-06-26T14:30:21;32.70;27.90
3868;DHT22;1949;48.152;11.528;2023-06-26T14:32:47;32.80;28.00
3868;DHT22;1949;48.152;11.528;2023-06-26T14:35:12;32.90;28.00
3868;DHT22;1949;48.152;11.528;2023-06-26T14:37:38;32.90;27.80
3868;DHT22;1949;48.152;11.528;2023-06-26T14:40:06;32.80;27.70
3868;DHT22;1949;48.152;11.528;2023-06-26T14:42:33;32.80;27.70
3868;DHT22;1949;48.152;11.528;2023-06-26T14:44:59;32.80;27.70
3868;DHT22;1949;48.152;11.528;2023-06-26T14:47:24;32.70;27.70
3868;DHT22;1949;48.152;11.528;2023-06-26T14:49:50;32.70;27.80
3868;DHT22;1949;48.152;11.528;2023-06-26T14:52:16;32.70;27.90
3868;DHT22;1949;48.152;11.528;2023-06-26T14:54:41;32.60;27.70
3868;DHT22;1949;48.152;11.528;2023-06-26T14:57:07;32.50;27.90
3868;DHT22;1949;48.152;11.528;2023-06-26T14:59:33;32.40;27.90
3868;DHT22;1949;48.152;11.528;2023-06-26T15:01:59;32.40;28.00
3868;DHT22;1949;48.152;11.528;2023-06-26T15:04:24;32.40;28.10
3868;DHT22;1949;48.152;11.528;2023-06-26T15:06:50;32.50;28.10
3868;DHT22;1949;48.152;11.528;2023-06-26T15:09:16;32.60;28.10
3868;DHT22;1949;48.152;11.528;2023-06-26T15:11:43;32.60;28.00
3868;DHT22;1949;48.152;11.528;2023-06-26T15:14:09;32.70;27.70
3868;DHT22;1949;48.152;11.528;2023-06-26T15:16:34;32.60;27.70
3868;DHT22;1949;48.152;11.528;2023-06-26T15:19:00;32.60;27.70
3868;DHT22;1949;48.152;11.528;2023-06-26T15:21:26;32.50;27.70
3868;DHT22;1949;48.152;11.528;2023-06-26T15:23:52;32.40;27.90
3868;DHT22;1949;48.152;11.528;2023-06-26T15:26:18;32.30;27.80
3868;DHT22;1949;48.152;11.528;2023-06-26T15:28:43;32.20;27.90
3868;DHT22;1949;48.152;11.528;2023-06-26T15:31:09;32.10;27.90
3868;DHT22;1949;48.152;11.528;2023-06-26T15:33:35;32.00;28.20
3868;DHT22;1949;48.152;11.528;2023-06-26T15:36:00;31.90;28.10
3868;DHT22;1949;48.152;11.528;2023-06-26T15:38:29;31.90;28.00
3868;DHT22;1949;48.152;11.528;2023-06-26T15:40:55;31.80;28.10
3868;DHT22;1949;48.152;11.528;2023-06-26T15:43:21;31.80;28.10
3868;DHT22;1949;48.152;11.528;2023-06-26T15:45:47;31.70;28.50
3868;DHT22;1949;48.152;11.528;2023-06-26T15:48:13;31.60;28.50
3868;DHT22;1949;48.152;11.528;2023-06-26T15:50:39;31.50;28.70
3868;DHT22;1949;48.152;11.528;2023-06-26T15:53:04;31.40;28.80
3868;DHT22;1949;48.152;11.528;2023-06-26T15:55:30;31.40;29.10
3868;DHT22;1949;48.152;11.528;2023-06-26T15:57:56;31.40;29.30
3868;DHT22;1949;48.152;11.528;2023-06-26T16:00:22;31.30;29.40